createdAt,value
2022-09-12T00:02:16.605Z,79.78
2022-09-12T00:04:48.745Z,79.73
2022-09-12T00:07:20.935Z,80.00
2022-09-12T00:09:52.933Z,79.87
2022-09-12T00:12:24.954Z,80.33
2022-09-12T00:14:56.990Z,80.43
2022-09-12T00:17:29.250Z,80.59
2022-09-12T00:20:01.533Z,80.47
2022-09-12T00:22:33.973Z,80.56
2022-09-12T00:25:09.732Z,80.40
2022-09-12T00:27:42.099Z,81.02
2022-09-12T00:30:14.987Z,81.36
2022-09-12T00:32:47.080Z,80.80
2022-09-12T00:35:19.146Z,81.12
2022-09-12T00:37:51.279Z,81.54
2022-09-12T00:40:23.359Z,81.52
2022-09-12T00:42:55.567Z,81.36
2022-09-12T00:45:31.184Z,81.55
2022-09-12T00:48:05.697Z,81.87
2022-09-12T00:50:37.958Z,81.84
2022-09-12T00:53:10.999Z,82.24
2022-09-12T00:55:45.932Z,82.18
2022-09-12T00:58:23.694Z,82.21
2022-09-12T01:00:56.507Z,82.48
2022-09-12T01:03:31.367Z,82.03
2022-09-12T01:06:09.042Z,82.46
2022-09-12T01:08:42.247Z,82.68
2022-09-12T01:11:15.725Z,82.89
2022-09-12T01:13:49.277Z,82.93
2022-09-12T01:16:21.369Z,82.39
2022-09-12T01:19:09.297Z,83.24
2022-09-12T01:21:55.642Z,83.31
2022-09-12T01:24:57.367Z,83.00
2022-09-12T01:27:50.079Z,83.43
2022-09-12T01:30:43.170Z,83.55
2022-09-12T01:33:53.162Z,83.46
2022-09-12T01:36:42.652Z,83.53
2022-09-12T01:39:23.327Z,84.14
2022-09-12T01:42:03.668Z,83.81
2022-09-12T01:44:42.537Z,84.29
2022-09-12T01:47:21.675Z,83.89
2022-09-12T01:50:02.131Z,84.08
2022-09-12T01:52:39.542Z,84.69
2022-09-12T01:55:18.095Z,84.60
2022-09-12T01:57:56.281Z,84.64
2022-09-12T02:00:28.938Z,84.27
2022-09-12T02:03:06.325Z,84.32
2022-09-12T02:05:42.483Z,84.82
2022-09-12T02:08:20.189Z,84.94
2022-09-12T02:10:57.789Z,84.81
2022-09-12T02:13:36.990Z,85.11
2022-09-12T02:16:13.360Z,85.08
2022-09-12T02:18:48.799Z,85.33
2022-09-12T02:21:24.073Z,85.02
2022-09-12T02:24:00.104Z,85.35
2022-09-12T02:26:38.168Z,85.41
2022-09-12T02:29:10.152Z,85.50
2022-09-12T02:31:46.668Z,85.06
2022-09-12T02:34:33.895Z,85.51
2022-09-12T02:37:14.559Z,85.63
2022-09-12T02:39:47.216Z,85.78
2022-09-12T02:42:19.249Z,85.90
2022-09-12T02:44:52.647Z,85.73
2022-09-12T02:47:30.150Z,85.96
2022-09-12T02:50:02.714Z,85.42
2022-09-12T02:52:35.345Z,85.96
2022-09-12T02:55:11.312Z,85.60
2022-09-12T02:57:44.904Z,86.02
2022-09-12T03:00:18.954Z,85.90
2022-09-12T03:03:19.513Z,85.37
2022-09-12T03:05:58.736Z,85.67
2022-09-12T03:08:58.742Z,85.80
2022-09-12T03:11:52.326Z,85.39
2022-09-12T03:14:42.269Z,85.94
2022-09-12T03:17:20.534Z,85.83
2022-09-12T03:20:00.898Z,85.60
2022-09-12T03:22:36.453Z,86.16
2022-09-12T03:25:17.537Z,86.55
2022-09-12T03:27:57.303Z,86.33
2022-09-12T03:30:30.010Z,86.29
2022-09-12T03:33:01.967Z,86.56
2022-09-12T03:35:34.074Z,87.27
2022-09-12T03:38:08.246Z,86.85
2022-09-12T03:40:41.058Z,86.44
2022-09-12T03:43:13.595Z,86.16
2022-09-12T03:45:45.645Z,86.24
2022-09-12T03:48:17.513Z,86.65
2022-09-12T03:50:49.833Z,86.40
2022-09-12T03:53:21.854Z,87.00
2022-09-12T03:55:54.118Z,86.79
2022-09-12T03:58:26.656Z,86.54
2022-09-12T04:00:59.143Z,87.09
2022-09-12T04:03:31.143Z,86.67
2022-09-12T04:06:03.379Z,86.67
2022-09-12T04:08:35.651Z,86.83
2022-09-12T04:11:10.032Z,86.80
2022-09-12T04:13:41.212Z,86.85
2022-09-12T04:16:15.140Z,86.71
2022-09-12T04:18:47.939Z,86.31
2022-09-12T04:21:23.115Z,86.83
2022-09-12T04:23:55.211Z,86.82
2022-09-12T04:26:30.078Z,86.40
2022-09-12T04:29:02.145Z,87.21
2022-09-12T04:31:37.354Z,86.88
2022-09-12T04:34:09.858Z,86.87
2022-09-12T04:36:42.796Z,86.96
2022-09-12T04:39:14.989Z,87.19
2022-09-12T04:41:47.083Z,87.52
2022-09-12T04:44:19.171Z,87.41
2022-09-12T04:46:52.638Z,87.84
2022-09-12T04:49:24.733Z,87.94
2022-09-12T04:51:57.024Z,87.32
2022-09-12T04:54:29.017Z,87.95
2022-09-12T04:57:01.155Z,87.51
2022-09-12T04:59:33.276Z,87.66
2022-09-12T05:02:06.219Z,87.92
2022-09-12T05:04:38.185Z,87.82
2022-09-12T05:07:10.271Z,87.75
2022-09-12T05:09:42.311Z,88.04
2022-09-12T05:12:16.584Z,87.53
2022-09-12T05:14:48.562Z,87.50
2022-09-12T05:17:20.603Z,87.58
2022-09-12T05:19:52.773Z,87.41
2022-09-12T05:22:25.381Z,87.41
2022-09-12T05:24:57.344Z,87.73
2022-09-12T05:27:29.650Z,87.74
2022-09-12T05:30:01.633Z,87.72
2022-09-12T05:32:35.758Z,87.51
2022-09-12T05:35:08.513Z,87.73
2022-09-12T05:37:40.671Z,87.65
2022-09-12T05:40:16.402Z,87.68
2022-09-12T05:42:48.565Z,87.80
2022-09-12T05:45:21.385Z,87.98
2022-09-12T05:47:54.462Z,87.51
2022-09-12T05:50:26.372Z,87.61
2022-09-12T05:52:59.766Z,87.91
2022-09-12T05:55:33.397Z,88.01
2022-09-12T05:58:05.541Z,88.06
2022-09-12T06:00:37.628Z,88.07
2022-09-12T06:03:09.968Z,88.15
2022-09-12T06:05:42.103Z,88.43
2022-09-12T06:08:16.508Z,88.62
2022-09-12T06:10:49.760Z,88.04
2022-09-12T06:13:21.852Z,87.99
2022-09-12T06:15:54.409Z,88.55
2022-09-12T06:18:26.645Z,87.99
2022-09-12T06:20:58.625Z,88.37
2022-09-12T06:23:30.909Z,88.61
2022-09-12T06:26:04.826Z,88.33
2022-09-12T06:28:38.939Z,88.32
2022-09-12T06:31:13.585Z,88.40
2022-09-12T06:33:48.086Z,88.35
2022-09-12T06:36:22.509Z,88.81
2022-09-12T06:39:01.530Z,89.02
2022-09-12T06:41:34.796Z,88.71
2022-09-12T06:44:07.439Z,89.02
2022-09-12T06:46:39.908Z,88.50
2022-09-12T06:49:13.277Z,88.73
2022-09-12T06:51:45.373Z,88.75
2022-09-12T06:54:20.172Z,89.28
2022-09-12T06:56:52.141Z,89.38
2022-09-12T06:59:24.101Z,89.07
2022-09-12T07:01:56.819Z,89.11
2022-09-12T07:04:29.348Z,88.75
2022-09-12T07:07:01.423Z,88.78
2022-09-12T07:09:33.683Z,88.31
2022-09-12T07:12:06.408Z,88.60
2022-09-12T07:14:38.564Z,88.60
2022-09-12T07:17:10.660Z,88.93
2022-09-12T07:19:43.717Z,89.17
2022-09-12T07:22:16.282Z,88.58
2022-09-12T07:24:48.643Z,88.72
2022-09-12T07:27:20.574Z,88.57
2022-09-12T07:29:52.814Z,88.58
2022-09-12T07:32:25.046Z,88.24
2022-09-12T07:34:57.213Z,88.70
2022-09-12T07:37:31.229Z,88.30
2022-09-12T07:40:03.850Z,88.18
2022-09-12T07:42:36.001Z,88.17
2022-09-12T07:45:10.512Z,87.77
2022-09-12T07:47:45.084Z,87.60
2022-09-12T07:50:17.908Z,87.48
2022-09-12T07:52:50.642Z,87.53
2022-09-12T07:55:22.663Z,87.84
2022-09-12T07:57:55.653Z,88.23
2022-09-12T08:00:36.143Z,87.63
2022-09-12T08:03:09.098Z,87.51
2022-09-12T08:05:41.093Z,87.90
2022-09-12T08:08:15.898Z,88.13
2022-09-12T08:10:48.226Z,88.37
2022-09-12T08:13:20.330Z,88.21
2022-09-12T08:15:52.521Z,88.20
2022-09-12T08:18:25.071Z,87.50
2022-09-12T08:21:00.934Z,87.42
2022-09-12T08:23:33.403Z,87.35
2022-09-12T08:26:07.757Z,87.44
2022-09-12T08:28:41.264Z,87.34
2022-09-12T08:31:16.241Z,87.42
2022-09-12T08:33:48.435Z,87.33
2022-09-12T08:36:23.358Z,87.21
2022-09-12T08:38:59.971Z,87.22
2022-09-12T08:41:36.527Z,87.18
2022-09-12T08:44:45.959Z,86.90
2022-09-12T08:47:27.167Z,86.99
2022-09-12T08:50:07.786Z,87.14
2022-09-12T08:52:45.155Z,86.55
2022-09-12T08:55:41.526Z,86.89
2022-09-12T08:58:17.977Z,86.62
2022-09-12T09:00:59.672Z,86.46
2022-09-12T09:04:08.801Z,85.75
2022-09-12T09:06:59.528Z,85.47
2022-09-12T09:09:44.138Z,85.53
2022-09-12T09:12:22.814Z,85.33
2022-09-12T09:15:21.618Z,85.56
2022-09-12T09:18:00.525Z,85.57
2022-09-12T09:20:38.439Z,85.14
2022-09-12T09:23:15.589Z,85.11
2022-09-12T09:25:54.013Z,84.87
2022-09-12T09:28:33.096Z,84.50
2022-09-12T09:31:07.112Z,85.20
2022-09-12T09:33:40.192Z,84.70
2022-09-12T09:36:22.563Z,84.50
2022-09-12T09:39:03.322Z,84.53
2022-09-12T09:41:47.263Z,84.37
2022-09-12T09:44:19.878Z,84.23
2022-09-12T09:46:55.429Z,83.66
2022-09-12T09:49:28.569Z,83.46
2022-09-12T09:52:02.319Z,83.01
2022-09-12T09:54:36.290Z,83.56
2022-09-12T09:57:41.272Z,83.31
2022-09-12T10:00:30.662Z,83.06
2022-09-12T10:03:23.486Z,83.39
2022-09-12T10:05:58.381Z,83.39
2022-09-12T10:08:32.724Z,83.41
2022-09-12T10:11:07.570Z,82.50
2022-09-12T10:13:44.694Z,82.56
2022-09-12T10:16:25.398Z,82.48
2022-09-12T10:18:59.462Z,82.20
2022-09-12T10:21:35.923Z,81.75
2022-09-12T10:24:20.571Z,82.21
2022-09-12T10:26:57.212Z,81.97
2022-09-12T10:29:33.526Z,81.90
2022-09-12T10:32:08.953Z,82.25
2022-09-12T10:34:46.204Z,82.06
2022-09-12T10:37:26.258Z,82.20
2022-09-12T10:40:00.505Z,82.33
2022-09-12T10:42:55.525Z,82.61
2022-09-12T10:45:31.024Z,82.34
2022-09-12T10:48:07.793Z,81.92
2022-09-12T10:50:42.959Z,81.63
2022-09-12T10:53:22.356Z,81.26
2022-09-12T10:56:09.066Z,81.35
2022-09-12T10:58:58.876Z,81.12
2022-09-12T11:01:44.448Z,81.18
2022-09-12T11:04:27.708Z,80.92
2022-09-12T11:07:21.204Z,80.98
2022-09-12T11:10:01.409Z,80.99
2022-09-12T11:12:42.572Z,80.80
2022-09-12T11:15:35.328Z,80.81
2022-09-12T11:18:17.258Z,80.60
2022-09-12T11:21:03.582Z,80.38
2022-09-12T11:24:00.327Z,80.08
2022-09-12T11:26:51.652Z,80.06
2022-09-12T11:29:38.194Z,80.32
2022-09-12T11:32:42.573Z,80.04
2022-09-12T11:35:25.964Z,79.96
2022-09-12T11:38:41.189Z,79.81
2022-09-12T11:41:21.335Z,79.78
2022-09-12T11:43:58.923Z,79.60
2022-09-12T11:46:38.285Z,79.28
2022-09-12T11:49:22.151Z,79.15
2022-09-12T11:51:58.285Z,79.54
2022-09-12T11:54:35.117Z,79.48
2022-09-12T11:57:15.621Z,79.37
2022-09-12T11:59:53.157Z,79.23
2022-09-12T12:02:29.607Z,79.08
2022-09-12T12:05:20.786Z,79.47
2022-09-12T12:07:56.918Z,79.55
2022-09-12T12:10:36.911Z,79.44
2022-09-12T12:13:18.331Z,78.97
2022-09-12T12:15:52.540Z,78.91
2022-09-12T12:18:27.849Z,78.89
2022-09-12T12:21:29.919Z,79.00
2022-09-12T12:24:19.299Z,78.83
2022-09-12T12:27:02.986Z,79.03
2022-09-12T12:29:47.996Z,79.26
2022-09-12T12:32:25.486Z,79.53
2022-09-12T12:35:38.614Z,79.34
2022-09-12T12:38:30.878Z,78.90
2022-09-12T12:41:45.260Z,78.82
2022-09-12T12:44:49.190Z,78.72
2022-09-12T12:47:24.525Z,78.70
2022-09-12T12:50:02.904Z,78.83
2022-09-12T12:52:46.243Z,78.37
2022-09-12T12:55:23.088Z,78.60
2022-09-12T12:57:57.318Z,78.16
2022-09-12T13:00:33.208Z,78.25
2022-09-12T13:03:20.997Z,78.17
2022-09-12T13:05:57.957Z,78.28
2022-09-12T13:08:33.995Z,78.19
2022-09-12T13:11:13.984Z,78.17
2022-09-12T13:13:59.923Z,78.17
2022-09-12T13:16:40.490Z,78.57
2022-09-12T13:19:21.549Z,78.38
2022-09-12T13:22:01.152Z,78.54
2022-09-12T13:24:33.348Z,78.38
2022-09-12T13:27:16.951Z,78.40
2022-09-12T13:29:49.527Z,78.25
2022-09-12T13:32:21.571Z,78.29
2022-09-12T13:35:09.905Z,78.36
2022-09-12T13:37:56.680Z,78.32
2022-09-12T13:40:37.232Z,78.12
2022-09-12T13:43:17.009Z,77.76
2022-09-12T13:45:51.002Z,77.59
2022-09-12T13:48:24.344Z,77.99
2022-09-12T13:51:01.143Z,77.53
2022-09-12T13:53:43.212Z,77.55
2022-09-12T13:56:21.716Z,77.56
2022-09-12T13:58:58.606Z,77.21
2022-09-12T14:01:42.931Z,77.08
2022-09-12T14:04:35.810Z,77.63
2022-09-12T14:07:15.482Z,76.77
2022-09-12T14:09:55.688Z,76.51
2022-09-12T14:12:34.346Z,76.54
2022-09-12T14:15:12.455Z,76.40
2022-09-12T14:17:52.966Z,76.48
2022-09-12T14:20:26.411Z,76.05
2022-09-12T14:23:00.727Z,75.97
2022-09-12T14:25:42.534Z,76.34
2022-09-12T14:28:23.344Z,75.69
2022-09-12T14:31:05.163Z,75.58
2022-09-12T14:33:50.199Z,76.06
2022-09-12T14:36:27.867Z,75.21
2022-09-12T14:39:03.552Z,75.19
2022-09-12T14:41:39.300Z,75.08
2022-09-12T14:44:19.326Z,75.11
2022-09-12T14:46:52.602Z,74.51
2022-09-12T14:49:31.826Z,74.57
2022-09-12T14:52:06.250Z,74.68
2022-09-12T14:54:44.621Z,74.26
2022-09-12T14:57:35.682Z,74.54
2022-09-12T15:00:25.261Z,74.23
2022-09-12T15:03:17.399Z,74.59
2022-09-12T15:05:52.933Z,73.98
2022-09-12T15:08:25.730Z,73.89
2022-09-12T15:10:58.279Z,74.08
2022-09-12T15:13:39.853Z,74.29
2022-09-12T15:16:16.039Z,74.43
2022-09-12T15:18:48.232Z,74.96
2022-09-12T15:21:22.632Z,73.96
2022-09-12T15:23:55.531Z,74.74
2022-09-12T15:26:31.812Z,74.91
2022-09-12T15:29:04.170Z,75.22
2022-09-12T15:31:39.637Z,75.61
2022-09-12T15:34:12.594Z,75.18
2022-09-12T15:36:44.631Z,75.13
2022-09-12T15:39:16.728Z,75.07
2022-09-12T15:41:50.794Z,74.96
2022-09-12T15:44:23.932Z,75.01
2022-09-12T15:46:56.000Z,75.29
2022-09-12T15:49:28.478Z,75.84
2022-09-12T15:52:01.088Z,75.55
2022-09-12T15:54:33.175Z,75.31
2022-09-12T15:57:05.330Z,76.31
2022-09-12T15:59:37.993Z,76.16
2022-09-12T16:02:13.149Z,76.55
2022-09-12T16:04:46.705Z,77.16
2022-09-12T16:07:18.971Z,77.24
2022-09-12T16:09:51.254Z,77.54
2022-09-12T16:12:23.320Z,77.35
2022-09-12T16:14:55.277Z,77.49
2022-09-12T16:17:27.750Z,78.13
2022-09-12T16:19:59.713Z,78.68
2022-09-12T16:22:32.122Z,78.71
2022-09-12T16:25:04.360Z,78.72
2022-09-12T16:27:37.796Z,78.71
2022-09-12T16:30:15.603Z,78.65
2022-09-12T16:32:47.723Z,79.28
2022-09-12T16:35:19.907Z,79.23
2022-09-12T16:37:52.114Z,79.60
2022-09-12T16:40:25.177Z,79.98
2022-09-12T16:42:57.523Z,79.79
2022-09-12T16:45:29.747Z,79.82
2022-09-12T16:48:02.065Z,80.18
2022-09-12T16:50:34.944Z,80.28
2022-09-12T16:53:07.577Z,80.48
2022-09-12T16:55:39.649Z,81.07
2022-09-12T16:58:12.073Z,81.23
2022-09-12T17:00:44.749Z,81.54
2022-09-12T17:03:17.676Z,81.70
2022-09-12T17:05:58.342Z,81.91
2022-09-12T17:08:30.952Z,82.09
2022-09-12T17:11:08.549Z,82.25
2022-09-12T17:14:03.403Z,82.55
2022-09-12T17:16:33.911Z,82.45
2022-09-12T17:19:09.111Z,82.47
2022-09-12T17:21:41.523Z,82.71
2022-09-12T17:24:15.061Z,82.77
2022-09-12T17:26:47.891Z,82.92
2022-09-12T17:29:21.150Z,83.03
2022-09-12T17:31:55.454Z,82.97
2022-09-12T17:34:27.591Z,83.17
2022-09-12T17:36:59.841Z,83.25
2022-09-12T17:39:32.685Z,82.95
2022-09-12T17:42:04.706Z,82.88
2022-09-12T17:44:37.845Z,82.88
2022-09-12T17:47:11.198Z,82.64
2022-09-12T17:49:43.840Z,82.77
2022-09-12T17:52:16.444Z,82.82
2022-09-12T17:54:48.953Z,82.80
2022-09-12T17:57:21.366Z,82.61
2022-09-12T17:59:54.174Z,82.42
2022-09-12T18:02:30.284Z,82.51
2022-09-12T18:05:06.069Z,82.59
2022-09-12T18:07:43.457Z,82.76
2022-09-12T18:10:19.285Z,82.89
2022-09-12T18:12:51.519Z,82.81
2022-09-12T18:15:23.755Z,82.82
2022-09-12T18:17:56.100Z,82.59
2022-09-12T18:20:28.644Z,83.08
2022-09-12T18:23:01.405Z,83.07
2022-09-12T18:25:33.934Z,83.06
2022-09-12T18:28:09.253Z,83.13
2022-09-12T18:30:42.962Z,83.17
2022-09-12T18:33:17.991Z,83.29
2022-09-12T18:35:53.200Z,83.34
2022-09-12T18:38:25.617Z,83.50
2022-09-12T18:41:06.650Z,83.52
2022-09-12T18:43:39.189Z,83.69
2022-09-12T18:46:14.661Z,83.89
2022-09-12T18:48:48.512Z,84.18
2022-09-12T18:51:24.376Z,84.50
2022-09-12T18:53:58.261Z,84.66
2022-09-12T18:56:33.484Z,84.27
2022-09-12T18:59:07.255Z,84.13
2022-09-12T19:01:41.567Z,84.16
2022-09-12T19:04:13.428Z,83.86
2022-09-12T19:06:48.059Z,84.09
2022-09-12T19:09:21.911Z,84.07
2022-09-12T19:11:53.280Z,83.86
2022-09-12T19:14:27.788Z,84.09
2022-09-12T19:17:00.974Z,84.39
2022-09-12T19:19:34.977Z,84.43
2022-09-12T19:22:09.292Z,84.78
2022-09-12T19:24:41.688Z,85.05
2022-09-12T19:27:14.587Z,85.30
2022-09-12T19:29:46.866Z,85.48
2022-09-12T19:32:19.158Z,85.64
2022-09-12T19:34:51.392Z,85.61
2022-09-12T19:37:23.525Z,85.44
2022-09-12T19:39:55.682Z,85.27
2022-09-12T19:42:28.404Z,85.32
2022-09-12T19:45:00.614Z,85.22
2022-09-12T19:47:32.924Z,85.09
2022-09-12T19:50:05.843Z,85.10
2022-09-12T19:52:38.347Z,85.24
2022-09-12T19:55:11.903Z,85.26
2022-09-12T19:57:44.682Z,85.32
2022-09-12T20:00:20.229Z,85.21
2022-09-12T20:02:56.126Z,85.43
2022-09-12T20:05:28.727Z,85.67
2022-09-12T20:08:01.992Z,85.91
2022-09-12T20:10:34.143Z,85.56
2022-09-12T20:13:06.903Z,85.29
2022-09-12T20:15:38.999Z,85.18
2022-09-12T20:18:11.237Z,85.27
2022-09-12T20:20:43.298Z,85.34
2022-09-12T20:23:18.283Z,85.36
2022-09-12T20:25:50.472Z,85.27
2022-09-12T20:28:22.985Z,85.63
2022-09-12T20:30:55.230Z,85.80
2022-09-12T20:33:27.474Z,85.93
2022-09-12T20:36:06.456Z,85.94
2022-09-12T20:38:39.702Z,85.78
2022-09-12T20:41:15.262Z,85.93
2022-09-12T20:43:50.122Z,86.21
2022-09-12T20:46:23.008Z,86.77
2022-09-12T20:48:56.344Z,86.96
2022-09-12T20:51:30.447Z,86.80
2022-09-12T20:54:05.044Z,86.82
2022-09-12T20:56:38.241Z,86.98
2022-09-12T20:59:11.472Z,87.06
2022-09-12T21:01:44.427Z,86.95
2022-09-12T21:04:16.740Z,86.68
2022-09-12T21:06:48.838Z,86.60
2022-09-12T21:09:20.816Z,86.45
2022-09-12T21:11:52.773Z,86.43
2022-09-12T21:14:24.995Z,86.71
2022-09-12T21:16:56.992Z,86.66
2022-09-12T21:19:29.276Z,86.55
2022-09-12T21:22:01.519Z,86.48
2022-09-12T21:24:33.797Z,86.32
2022-09-12T21:27:06.108Z,86.31
2022-09-12T21:29:38.759Z,86.33
2022-09-12T21:32:13.999Z,86.42
2022-09-12T21:34:47.222Z,86.42
2022-09-12T21:37:19.362Z,86.69
2022-09-12T21:39:51.527Z,87.06
2022-09-12T21:42:23.663Z,87.33
2022-09-12T21:44:56.123Z,87.57
2022-09-12T21:47:28.161Z,87.61
2022-09-12T21:50:00.430Z,87.32
2022-09-12T21:52:32.642Z,87.32
2022-09-12T21:55:06.136Z,87.46
2022-09-12T21:57:38.573Z,87.53
2022-09-12T22:00:16.723Z,87.62
2022-09-12T22:02:52.827Z,87.68
2022-09-12T22:05:24.868Z,87.58
2022-09-12T22:07:57.063Z,87.58
2022-09-12T22:10:29.715Z,87.66
2022-09-12T22:13:01.813Z,87.66
2022-09-12T22:15:40.539Z,87.57
2022-09-12T22:18:14.784Z,87.57
2022-09-12T22:20:46.974Z,87.64
2022-09-12T22:23:37.172Z,87.61
2022-09-12T22:26:09.528Z,87.45
2022-09-12T22:28:41.725Z,87.43
2022-09-12T22:31:15.440Z,87.49
2022-09-12T22:33:48.240Z,87.53
2022-09-12T22:36:20.235Z,87.48
2022-09-12T22:38:52.173Z,87.65
2022-09-12T22:41:24.527Z,87.84
2022-09-12T22:43:57.443Z,88.05
2022-09-12T22:46:30.414Z,88.02
2022-09-12T22:49:02.547Z,87.86
2022-09-12T22:51:35.507Z,87.90
2022-09-12T22:54:08.139Z,87.84
2022-09-12T22:56:40.269Z,88.03
2022-09-12T22:59:12.271Z,88.17
2022-09-12T23:01:44.372Z,87.97
2022-09-12T23:04:16.378Z,88.01
2022-09-12T23:06:49.433Z,87.86
2022-09-12T23:09:21.407Z,87.91
2022-09-12T23:11:53.564Z,87.60
2022-09-12T23:14:25.569Z,87.85
2022-09-12T23:16:57.522Z,87.99
2022-09-12T23:19:29.510Z,88.16
2022-09-12T23:22:01.615Z,88.34
2022-09-12T23:24:33.654Z,88.45
2022-09-12T23:27:06.286Z,88.43
2022-09-12T23:29:38.549Z,88.38
2022-09-12T23:32:10.744Z,88.35
2022-09-12T23:34:42.731Z,88.05
2022-09-12T23:37:16.081Z,88.02
2022-09-12T23:39:48.064Z,88.22
2022-09-12T23:42:20.422Z,88.40
2022-09-12T23:44:52.626Z,88.52
2022-09-12T23:47:24.642Z,88.75
2022-09-12T23:49:56.853Z,88.79
2022-09-12T23:52:29.897Z,88.86
2022-09-12T23:55:01.913Z,88.93
2022-09-12T23:57:33.993Z,89.03
